| time (UTC) | temp F | wind direction | speed MPH | gust MPH | rain 1hr in | rain 24hr in | rain mn in | humidity % | barometer mb |
| 20260905020239 | 97 | 85 | 0.0 | 0.0 | 0.00 | 0.00 | 0.00 | 33 | 1009.3 |
| 20260905015738 | 97 | 94 | 0.0 | 0.0 | 0.00 | 0.00 | 0.00 | 34 | 1009.2 |
| 20260905015232 | 97 | 59 | 2.0 | 2.0 | 0.00 | 0.00 | 0.00 | 34 | 1009.3 |
| 20260905014731 | 97 | 47 | 2.0 | 3.0 | 0.00 | 0.00 | 0.00 | 34 | 1009.1 |
| 20260905014227 | 97 | 80 | 4.0 | 5.0 | 0.00 | 0.00 | 0.00 | 33 | 1009.0 |
| 20260905013722 | 98 | 68 | 2.0 | 5.0 | 0.00 | 0.00 | 0.00 | 33 | 1008.9 |
| 20260905013218 | 98 | 70 | 2.0 | 5.0 | 0.00 | 0.00 | 0.00 | 33 | 1008.9 |
| 20260905012714 | 98 | 73 | 0.0 | 1.0 | 0.00 | 0.00 | 0.00 | 34 | 1008.9 |
| 20260905012209 | 98 | 53 | 1.0 | 3.0 | 0.00 | 0.00 | 0.00 | 33 | 1009.1 |
| 20260905011706 | 99 | 91 | 0.0 | 0.0 | 0.00 | 0.00 | 0.00 | 30 | 1009.0 |
| 20260905011202 | 99 | 82 | 0.0 | 1.0 | 0.00 | 0.00 | 0.00 | 31 | 1009.0 |
| 20260905010701 | 99 | 42 | 1.0 | 2.0 | 0.00 | 0.00 | 0.00 | 30 | 1008.9 |
| 20260905010157 | 99 | 63 | 1.0 | 1.0 | 0.00 | 0.00 | 0.00 | 30 | 1009.1 |
| 20260905005654 | 99 | 71 | 0.0 | 1.0 | 0.00 | 0.00 | 0.00 | 30 | 1009.1 |
| 20260905005149 | 99 | 33 | 1.0 | 2.0 | 0.00 | 0.00 | 0.00 | 30 | 1009.0 |
| 20260905004643 | 98 | 20 | 1.0 | 2.0 | 0.00 | 0.00 | 0.00 | 31 | 1009.4 |
| 20260905004138 | 99 | 7 | 0.0 | 5.0 | 0.00 | 0.00 | 0.00 | 31 | 1009.1 |
| 20260905003634 | 99 | 285 | 3.0 | 5.0 | 0.00 | 0.00 | 0.00 | 30 | 1009.5 |
| 20260905003129 | 100 | 51 | 2.0 | 2.0 | 0.00 | 0.00 | 0.00 | 30 | 1009.2 |
| 20260905002625 | 99 | 60 | 0.0 | 2.0 | 0.00 | 0.00 | 0.00 | 31 | 1009.0 |
| 20260905002120 | 100 | 47 | 1.0 | 2.0 | 0.00 | 0.00 | 0.00 | 32 | 1009.2 |
| 20260905001615 | 99 | 4 | 2.0 | 3.0 | 0.00 | 0.00 | 0.00 | 32 | 1009.2 |
| 20260905001114 | 99 | 45 | 1.0 | 5.0 | 0.00 | 0.00 | 0.00 | 33 | 1009.2 |
| 20260905000610 | 100 | 284 | 6.0 | 7.0 | 0.00 | 0.00 | 0.00 | 32 | 1009.3 |
| 20260905000106 | 100 | 147 | 1.0 | 1.0 | 0.00 | 0.00 | 0.00 | 31 | 1009.0 |
| 20260904235606 | 102 | 150 | 1.0 | 2.0 | 0.00 | 0.00 | 0.00 | 30 | 1009.2 |
| 20260904235105 | 102 | 128 | 2.0 | 3.0 | 0.00 | 0.00 | 0.00 | 30 | 1009.1 |
| 20260904234600 | 101 | 69 | 0.0 | 2.0 | 0.00 | 0.00 | 0.00 | 30 | 1009.2 |
| 20260904234056 | 101 | 173 | 5.0 | 8.0 | 0.00 | 0.00 | 0.00 | 30 | 1009.1 |
| 20260904233556 | 100 | 137 | 3.0 | 7.0 | 0.00 | 0.00 | 0.00 | 31 | 1009.3 |
| 20260904233052 | 99 | 100 | 2.0 | 3.0 | 0.00 | 0.00 | 0.00 | 32 | 1009.2 |
| 20260904232549 | 99 | 40 | 5.0 | 7.0 | 0.00 | 0.00 | 0.00 | 32 | 1009.2 |
| 20260904232045 | 100 | 74 | 1.0 | 7.0 | 0.00 | 0.00 | 0.00 | 32 | 1009.5 |
| 20260904231540 | 99 | 107 | 5.0 | 7.0 | 0.00 | 0.00 | 0.00 | 32 | 1009.4 |
| 20260904231035 | 99 | 45 | 2.0 | 5.0 | 0.00 | 0.00 | 0.00 | 32 | 1009.4 |
| 20260904230534 | 101 | 113 | 4.0 | 6.0 | 0.00 | 0.00 | 0.00 | 32 | 1009.5 |
| 20260904230030 | 101 | 90 | 3.0 | 7.0 | 0.00 | 0.00 | 0.00 | 31 | 1009.6 |
| 20260904225527 | 101 | 120 | 4.0 | 6.0 | 0.00 | 0.00 | 0.00 | 32 | 1009.6 |
| 20260904225027 | 100 | 174 | 4.0 | 7.0 | 0.00 | 0.00 | 0.00 | 31 | 1009.7 |
| 20260904224523 | 102 | 114 | 2.0 | 5.0 | 0.00 | 0.00 | 0.00 | 31 | 1009.6 |
| 20260904224022 | 100 | 203 | 3.0 | 3.0 | 0.00 | 0.00 | 0.00 | 32 | 1009.7 |
| 20260904223521 | 101 | 128 | 2.0 | 8.0 | 0.00 | 0.00 | 0.00 | 32 | 1010.1 |
| 20260904223018 | 100 | 85 | 0.0 | 2.0 | 0.00 | 0.00 | 0.00 | 32 | 1010.0 |
| 20260904222513 | 100 | 39 | 2.0 | 3.0 | 0.00 | 0.00 | 0.00 | 32 | 1010.0 |
| 20260904222008 | 101 | 147 | 0.0 | 5.0 | 0.00 | 0.00 | 0.00 | 32 | 1010.1 |
| 20260904221503 | 99 | 107 | 3.0 | 3.0 | 0.00 | 0.00 | 0.00 | 32 | 1010.1 |
| 20260904220957 | 98 | 72 | 1.0 | 3.0 | 0.00 | 0.00 | 0.00 | 34 | 1010.0 |
| 20260904220457 | 99 | 113 | 1.0 | 2.0 | 0.00 | 0.00 | 0.00 | 33 | 1010.3 |
| 20260904215952 | 98 | 41 | 0.0 | 1.0 | 0.00 | 0.00 | 0.00 | 33 | 1010.3 |
| 20260904215447 | 98 | 9 | 1.0 | 6.0 | 0.00 | 0.00 | 0.00 | 34 | 1010.4 |
| 20260904214943 | 98 | 238 | 5.0 | 5.0 | 0.00 | 0.00 | 0.00 | 34 | 1010.5 |
| 20260904214438 | 99 | 134 | 2.0 | 5.0 | 0.00 | 0.00 | 0.00 | 33 | 1010.5 |
| 20260904213933 | 98 | 131 | 1.0 | 5.0 | 0.00 | 0.00 | 0.00 | 33 | 1010.6 |
| 20260904213432 | 98 | 95 | 2.0 | 5.0 | 0.00 | 0.00 | 0.00 | 33 | 1010.5 |
| 20260904212928 | 99 | 121 | 3.0 | 6.0 | 0.00 | 0.00 | 0.00 | 32 | 1010.6 |
| 20260904212428 | 100 | 151 | 4.0 | 5.0 | 0.00 | 0.00 | 0.00 | 31 | 1010.8 |
| 20260904211923 | 99 | 117 | 5.0 | 6.0 | 0.00 | 0.00 | 0.00 | 34 | 1010.7 |
| 20260904211418 | 100 | 83 | 1.0 | 6.0 | 0.00 | 0.00 | 0.00 | 32 | 1010.8 |
| 20260904210914 | 99 | 106 | 1.0 | 5.0 | 0.00 | 0.00 | 0.00 | 32 | 1010.8 |
| 20260904210412 | 100 | 121 | 2.0 | 6.0 | 0.00 | 0.00 | 0.00 | 32 | 1011.0 |
| 20260904205909 | 101 | 90 | 0.0 | 2.0 | 0.00 | 0.00 | 0.00 | 32 | 1011.1 |
| 20260904205404 | 102 | 128 | 0.0 | 2.0 | 0.00 | 0.00 | 0.00 | 30 | 1011.2 |
| 20260904204901 | 101 | 127 | 2.0 | 2.0 | 0.00 | 0.00 | 0.00 | 31 | 1011.0 |
| 20260904204357 | 100 | 176 | 6.0 | 13.0 | 0.00 | 0.00 | 0.00 | 32 | 1011.1 |
| 20260904203853 | 100 | 122 | 3.0 | 3.0 | 0.00 | 0.00 | 0.00 | 33 | 1011.1 |
| 20260904203349 | 100 | 247 | 2.0 | 5.0 | 0.00 | 0.00 | 0.00 | 33 | 1011.0 |
| 20260904202844 | 100 | 228 | 4.0 | 17.0 | 0.00 | 0.00 | 0.00 | 34 | 1011.3 |
| 20260904202340 | 99 | 76 | 0.0 | 2.0 | 0.00 | 0.00 | 0.00 | 35 | 1011.5 |
| 20260904201836 | 98 | 186 | 5.0 | 6.0 | 0.00 | 0.00 | 0.00 | 36 | 1011.5 |
| 20260904201336 | 99 | 145 | 3.0 | 7.0 | 0.00 | 0.00 | 0.00 | 36 | 1011.8 |
| 20260904200831 | 98 | 183 | 4.0 | 8.0 | 0.00 | 0.00 | 0.00 | 36 | 1011.7 |
| 20260904200329 | 98 | 110 | 7.0 | 10.0 | 0.00 | 0.00 | 0.00 | 37 | 1011.7 |
| 20260904195824 | 98 | 130 | 2.0 | 7.0 | 0.00 | 0.00 | 0.00 | 36 | 1011.8 |
| 20260904195323 | 99 | 133 | 2.0 | 7.0 | 0.00 | 0.00 | 0.00 | 35 | 1012.0 |
| 20260904194818 | 99 | 40 | 5.0 | 8.0 | 0.00 | 0.00 | 0.00 | 35 | 1012.0 |
| 20260904194317 | 98 | 138 | 7.0 | 13.0 | 0.00 | 0.00 | 0.00 | 35 | 1012.0 |
| 20260904193812 | 98 | 84 | 3.0 | 3.0 | 0.00 | 0.00 | 0.00 | 37 | 1012.2 |
| 20260904193308 | 97 | 79 | 7.0 | 9.0 | 0.00 | 0.00 | 0.00 | 38 | 1011.8 |
| 20260904192803 | 98 | 64 | 3.0 | 3.0 | 0.00 | 0.00 | 0.00 | 38 | 1012.2 |
| 20260904192258 | 97 | 118 | 3.0 | 7.0 | 0.00 | 0.00 | 0.00 | 39 | 1012.3 |
| 20260904191755 | 97 | 104 | 5.0 | 7.0 | 0.00 | 0.00 | 0.00 | 39 | 1012.4 |
| 20260904191251 | 96 | 91 | 3.0 | 5.0 | 0.00 | 0.00 | 0.00 | 39 | 1012.4 |
| 20260904190747 | 96 | 244 | 1.0 | 6.0 | 0.00 | 0.00 | 0.00 | 39 | 1012.6 |
| 20260904190243 | 96 | 171 | 2.0 | 3.0 | 0.00 | 0.00 | 0.00 | 39 | 1012.5 |
| 20260904185739 | 94 | 89 | 1.0 | 6.0 | 0.00 | 0.00 | 0.00 | 43 | 1012.7 |
| 20260904185234 | 96 | 107 | 0.0 | 5.0 | 0.00 | 0.00 | 0.00 | 40 | 1012.7 |
| 20260904184732 | 96 | 104 | 0.0 | 3.0 | 0.00 | 0.00 | 0.00 | 40 | 1012.9 |
| 20260904184229 | 96 | 158 | 5.0 | 8.0 | 0.00 | 0.00 | 0.00 | 40 | 1013.0 |
| 20260904183724 | 95 | 147 | 7.0 | 10.0 | 0.00 | 0.00 | 0.00 | 40 | 1013.2 |
| 20260904183224 | 95 | 93 | 1.0 | 6.0 | 0.00 | 0.00 | 0.00 | 41 | 1013.4 |
| 20260904182720 | 95 | 147 | 3.0 | 7.0 | 0.00 | 0.00 | 0.00 | 41 | 1013.4 |
| 20260904182215 | 95 | 119 | 4.0 | 6.0 | 0.00 | 0.00 | 0.00 | 41 | 1013.3 |
| 20260904181711 | 95 | 205 | 4.0 | 6.0 | 0.00 | 0.00 | 0.00 | 42 | 1013.5 |
| 20260904181210 | 95 | 133 | 7.0 | 9.0 | 0.00 | 0.00 | 0.00 | 43 | 1013.3 |
| 20260904180706 | 95 | 96 | 3.0 | 6.0 | 0.00 | 0.00 | 0.00 | 43 | 1013.4 |
| 20260904180201 | 95 | 128 | 1.0 | 6.0 | 0.00 | 0.00 | 0.00 | 44 | 1013.6 |
| 20260904175700 | 94 | 98 | 0.0 | 1.0 | 0.00 | 0.00 | 0.00 | 43 | 1013.5 |
| 20260904175159 | 94 | 149 | 4.0 | 8.0 | 0.00 | 0.00 | 0.00 | 44 | 1013.6 |
| 20260904174658 | 94 | 124 | 4.0 | 5.0 | 0.00 | 0.00 | 0.00 | 45 | 1013.8 |
| 20260904174155 | 94 | 185 | 5.0 | 10.0 | 0.00 | 0.00 | 0.00 | 45 | 1013.9 |
| 20260904173650 | 94 | 131 | 3.0 | 10.0 | 0.00 | 0.00 | 0.00 | 45 | 1013.6 |
| 20260904173145 | 93 | 103 | 5.0 | 7.0 | 0.00 | 0.00 | 0.00 | 46 | 1013.5 |
| 20260904172642 | 94 | 159 | 4.0 | 9.0 | 0.00 | 0.00 | 0.00 | 45 | 1013.5 |
| 20260904172141 | 94 | 129 | 6.0 | 15.0 | 0.00 | 0.00 | 0.00 | 46 | 1013.6 |
| 20260904171636 | 93 | 163 | 4.0 | 9.0 | 0.00 | 0.00 | 0.00 | 47 | 1013.8 |
| 20260904171131 | 94 | 169 | 6.0 | 9.0 | 0.00 | 0.00 | 0.00 | 46 | 1013.6 |
| 20260904170628 | 93 | 178 | 6.0 | 11.0 | 0.00 | 0.00 | 0.00 | 47 | 1013.6 |
| 20260904170123 | 92 | 90 | 8.0 | 13.0 | 0.00 | 0.00 | 0.00 | 48 | 1013.6 |
| 20260904165622 | 93 | 71 | 8.0 | 15.0 | 0.00 | 0.00 | 0.00 | 49 | 1013.5 |
| 20260904165122 | 92 | 120 | 6.0 | 14.0 | 0.00 | 0.00 | 0.00 | 48 | 1013.8 |
| 20260904164621 | 92 | 200 | 5.0 | 9.0 | 0.00 | 0.00 | 0.00 | 48 | 1013.5 |
| 20260904164117 | 91 | 158 | 4.0 | 7.0 | 0.00 | 0.00 | 0.00 | 49 | 1013.5 |
| 20260904163612 | 92 | 128 | 9.0 | 14.0 | 0.00 | 0.00 | 0.00 | 50 | 1013.3 |
| 20260904163108 | 92 | 156 | 4.0 | 9.0 | 0.00 | 0.00 | 0.00 | 51 | 1013.1 |
| 20260904162608 | 91 | 87 | 5.0 | 11.0 | 0.00 | 0.00 | 0.00 | 51 | 1013.2 |
| 20260904162103 | 91 | 133 | 5.0 | 9.0 | 0.00 | 0.00 | 0.00 | 52 | 1013.4 |
| 20260904161558 | 90 | 125 | 5.0 | 11.0 | 0.00 | 0.00 | 0.00 | 53 | 1012.9 |
| 20260904161053 | 91 | 176 | 5.0 | 9.0 | 0.00 | 0.00 | 0.00 | 52 | 1013.1 |
| 20260904160548 | 91 | 133 | 8.0 | 13.0 | 0.00 | 0.00 | 0.00 | 52 | 1013.1 |
| 20260904160044 | 91 | 150 | 9.0 | 11.0 | 0.00 | 0.00 | 0.00 | 52 | 1013.3 |
| 20260904155543 | 90 | 106 | 2.0 | 5.0 | 0.00 | 0.00 | 0.00 | 53 | 1013.3 |
| 20260904155038 | 89 | 143 | 9.0 | 11.0 | 0.00 | 0.00 | 0.00 | 54 | 1013.2 |
| 20260904154532 | 89 | 182 | 5.0 | 7.0 | 0.00 | 0.00 | 0.00 | 54 | 1013.2 |
| 20260904154027 | 89 | 149 | 2.0 | 7.0 | 0.00 | 0.00 | 0.00 | 54 | 1013.2 |
| 20260904153526 | 90 | 86 | 7.0 | 11.0 | 0.00 | 0.00 | 0.00 | 54 | 1013.3 |
| 20260904153023 | 89 | 156 | 1.0 | 2.0 | 0.00 | 0.00 | 0.00 | 55 | 1013.2 |
| 20260904152518 | 89 | 149 | 4.0 | 10.0 | 0.00 | 0.00 | 0.00 | 55 | 1013.1 |
| 20260904152014 | 88 | 132 | 6.0 | 9.0 | 0.00 | 0.00 | 0.00 | 56 | 1013.0 |
| 20260904151509 | 89 | 121 | 3.0 | 5.0 | 0.00 | 0.00 | 0.00 | 56 | 1013.2 |
| 20260904151009 | 88 | 132 | 1.0 | 8.0 | 0.00 | 0.00 | 0.00 | 55 | 1013.2 |
| 20260904150503 | 88 | 175 | 7.0 | 9.0 | 0.00 | 0.00 | 0.00 | 56 | 1013.1 |
| 20260904150003 | 88 | 124 | 2.0 | 11.0 | 0.00 | 0.00 | 0.00 | 56 | 1013.1 |
| 20260904145458 | 88 | 137 | 7.0 | 9.0 | 0.00 | 0.00 | 0.00 | 57 | 1013.1 |
| 20260904144953 | 88 | 146 | 2.0 | 8.0 | 0.00 | 0.00 | 0.00 | 57 | 1013.3 |
| 20260904144449 | 88 | 96 | 1.0 | 10.0 | 0.00 | 0.00 | 0.00 | 58 | 1013.2 |
| 20260904143944 | 87 | 131 | 5.0 | 6.0 | 0.00 | 0.00 | 0.00 | 58 | 1013.2 |
| 20260904143440 | 87 | 85 | 1.0 | 3.0 | 0.00 | 0.00 | 0.00 | 58 | 1012.9 |
| 20260904142937 | 87 | 85 | 4.0 | 7.0 | 0.00 | 0.00 | 0.00 | 59 | 1013.1 |
| 20260904142433 | 87 | 67 | 3.0 | 6.0 | 0.00 | 0.00 | 0.00 | 58 | 1013.0 |
| 20260904141933 | 87 | 124 | 1.0 | 5.0 | 0.00 | 0.00 | 0.00 | 59 | 1013.0 |
| 20260904141428 | 86 | 107 | 2.0 | 3.0 | 0.00 | 0.00 | 0.00 | 59 | 1012.7 |
| 20260904140924 | 86 | 117 | 1.0 | 5.0 | 0.00 | 0.00 | 0.00 | 59 | 1012.6 |
| 20260904140424 | 86 | 122 | 2.0 | 2.0 | 0.00 | 0.00 | 0.00 | 59 | 1012.6 |
| 20260904135923 | 86 | 112 | 3.0 | 3.0 | 0.00 | 0.00 | 0.00 | 60 | 1012.9 |
| 20260904135423 | 86 | 125 | 2.0 | 3.0 | 0.00 | 0.00 | 0.00 | 60 | 1012.7 |
| 20260904134920 | 86 | 104 | 1.0 | 2.0 | 0.00 | 0.00 | 0.00 | 60 | 1012.5 |
| 20260904134419 | 85 | 89 | 1.0 | 2.0 | 0.00 | 0.00 | 0.00 | 60 | 1012.3 |
| 20260904133914 | 85 | 114 | 0.0 | 1.0 | 0.00 | 0.00 | 0.00 | 61 | 1012.4 |
| 20260904133414 | 85 | 103 | 0.0 | 1.0 | 0.00 | 0.00 | 0.00 | 61 | 1012.5 |
| 20260904132909 | 84 | 105 | 1.0 | 3.0 | 0.00 | 0.00 | 0.00 | 61 | 1012.1 |
| 20260904132405 | 84 | 101 | 1.0 | 3.0 | 0.00 | 0.00 | 0.00 | 62 | 1011.9 |
| 20260904131904 | 83 | 124 | 2.0 | 3.0 | 0.00 | 0.00 | 0.00 | 63 | 1012.0 |
| 20260904131400 | 83 | 79 | 0.0 | 0.0 | 0.00 | 0.00 | 0.00 | 64 | 1011.9 |
| 20260904130855 | 84 | 80 | 1.0 | 2.0 | 0.00 | 0.00 | 0.00 | 62 | 1011.9 |
| 20260904130354 | 84 | 106 | 0.0 | 1.0 | 0.00 | 0.00 | 0.00 | 62 | 1011.7 |
| 20260904125849 | 84 | 97 | 0.0 | 1.0 | 0.00 | 0.00 | 0.00 | 61 | 1011.7 |
| 20260904125346 | 84 | 139 | 3.0 | 3.0 | 0.00 | 0.00 | 0.00 | 61 | 1011.7 |
| 20260904124844 | 84 | 114 | 1.0 | 6.0 | 0.00 | 0.00 | 0.00 | 61 | 1011.4 |
| 20260904124341 | 84 | 94 | 1.0 | 5.0 | 0.00 | 0.00 | 0.00 | 61 | 1011.5 |
| 20260904123836 | 84 | 133 | 2.0 | 3.0 | 0.00 | 0.00 | 0.00 | 61 | 1011.5 |
| 20260904123331 | 84 | 93 | 1.0 | 3.0 | 0.00 | 0.00 | 0.00 | 61 | 1011.3 |
| 20260904122827 | 84 | 136 | 1.0 | 2.0 | 0.00 | 0.00 | 0.00 | 61 | 1011.2 |
| 20260904122326 | 84 | 138 | 4.0 | 6.0 | 0.00 | 0.00 | 0.00 | 61 | 1011.1 |
| 20260904121821 | 84 | 159 | 1.0 | 2.0 | 0.00 | 0.00 | 0.00 | 61 | 1010.8 |
| 20260904121318 | 85 | 132 | 3.0 | 8.0 | 0.00 | 0.00 | 0.00 | 60 | 1011.2 |
| 20260904120814 | 85 | 173 | 2.0 | 6.0 | 0.00 | 0.00 | 0.00 | 60 | 1011.1 |
| 20260904120309 | 85 | 111 | 3.0 | 6.0 | 0.00 | 0.00 | 0.00 | 60 | 1011.2 |
| 20260904115804 | 85 | 127 | 2.0 | 6.0 | 0.00 | 0.00 | 0.00 | 60 | 1011.0 |
| 20260904115300 | 85 | 147 | 3.0 | 7.0 | 0.00 | 0.00 | 0.00 | 60 | 1011.2 |
| 20260904114754 | 85 | 130 | 5.0 | 9.0 | 0.00 | 0.00 | 0.00 | 59 | 1010.6 |
| 20260904114254 | 85 | 121 | 2.0 | 5.0 | 0.00 | 0.00 | 0.00 | 60 | 1010.8 |
| 20260904113749 | 85 | 177 | 3.0 | 6.0 | 0.00 | 0.00 | 0.00 | 60 | 1011.0 |
| 20260904113248 | 85 | 115 | 3.0 | 6.0 | 0.00 | 0.00 | 0.00 | 59 | 1011.2 |
| 20260904112743 | 85 | 128 | 2.0 | 3.0 | 0.00 | 0.00 | 0.00 | 60 | 1011.1 |
| 20260904112239 | 85 | 137 | 3.0 | 5.0 | 0.00 | 0.00 | 0.00 | 60 | 1011.2 |
| 20260904111735 | 85 | 105 | 2.0 | 5.0 | 0.00 | 0.00 | 0.00 | 60 | 1010.8 |
| 20260904111230 | 85 | 121 | 2.0 | 5.0 | 0.00 | 0.00 | 0.00 | 59 | 1011.1 |
| 20260904110726 | 85 | 122 | 1.0 | 6.0 | 0.00 | 0.00 | 0.00 | 59 | 1011.0 |
| 20260904110225 | 85 | 99 | 3.0 | 8.0 | 0.00 | 0.00 | 0.00 | 59 | 1011.0 |
| 20260904105720 | 85 | 141 | 6.0 | 8.0 | 0.00 | 0.00 | 0.00 | 59 | 1010.8 |
| 20260904105214 | 85 | 122 | 2.0 | 6.0 | 0.00 | 0.00 | 0.00 | 59 | 1011.0 |
| 20260904104710 | 84 | 107 | 3.0 | 6.0 | 0.00 | 0.00 | 0.00 | 59 | 1011.0 |
| 20260904104205 | 84 | 124 | 2.0 | 3.0 | 0.00 | 0.00 | 0.00 | 60 | 1010.8 |
| 20260904103702 | 84 | 100 | 1.0 | 2.0 | 0.00 | 0.00 | 0.00 | 60 | 1010.7 |
| 20260904103156 | 84 | 69 | 2.0 | 3.0 | 0.00 | 0.00 | 0.00 | 60 | 1010.7 |
| 20260904102653 | 84 | 76 | 1.0 | 2.0 | 0.00 | 0.00 | 0.00 | 60 | 1010.7 |
| 20260904102147 | 84 | 78 | 0.0 | 1.0 | 0.00 | 0.00 | 0.00 | 59 | 1010.6 |
| 20260904101645 | 84 | 86 | 0.0 | 1.0 | 0.00 | 0.00 | 0.00 | 60 | 1010.5 |
| 20260904101140 | 84 | 90 | 0.0 | 0.0 | 0.00 | 0.00 | 0.00 | 60 | 1010.6 |
| 20260904100636 | 84 | 82 | 0.0 | 0.0 | 0.00 | 0.00 | 0.00 | 59 | 1010.6 |
| 20260904100131 | 84 | 78 | 0.0 | 0.0 | 0.00 | 0.00 | 0.00 | 59 | 1010.4 |
| 20260904095625 | 84 | 68 | 0.0 | 0.0 | 0.00 | 0.00 | 0.00 | 59 | 1010.6 |
| 20260904095125 | 84 | 78 | 0.0 | 0.0 | 0.00 | 0.00 | 0.00 | 59 | 1010.6 |
| 20260904094620 | 85 | 69 | 0.0 | 0.0 | 0.00 | 0.00 | 0.00 | 58 | 1010.5 |
| 20260904094110 | 85 | 86 | 0.0 | 0.0 | 0.00 | 0.00 | 0.00 | 57 | 1010.5 |
| 20260904093607 | 85 | 97 | 0.0 | 2.0 | 0.00 | 0.00 | 0.00 | 57 | 1010.5 |
| 20260904093106 | 86 | 86 | 0.0 | 2.0 | 0.00 | 0.00 | 0.00 | 57 | 1010.7 |
| 20260904092602 | 86 | 118 | 0.0 | 2.0 | 0.00 | 0.00 | 0.00 | 56 | 1010.4 |
| 20260904092059 | 86 | 106 | 1.0 | 2.0 | 0.00 | 0.00 | 0.00 | 56 | 1010.5 |
| 20260904091554 | 86 | 101 | 0.0 | 0.0 | 0.00 | 0.00 | 0.00 | 57 | 1010.4 |
| 20260904091053 | 86 | 106 | 0.0 | 1.0 | 0.00 | 0.00 | 0.00 | 57 | 1010.3 |
| 20260904090549 | 86 | 104 | 0.0 | 2.0 | 0.00 | 0.00 | 0.00 | 57 | 1010.3 |
| 20260904090046 | 86 | 113 | 0.0 | 2.0 | 0.00 | 0.00 | 0.00 | 57 | 1010.5 |
| 20260904085545 | 86 | 59 | 1.0 | 5.0 | 0.00 | 0.00 | 0.00 | 57 | 1010.5 |
| 20260904085045 | 86 | 101 | 0.0 | 2.0 | 0.00 | 0.00 | 0.00 | 57 | 1010.5 |
| 20260904084541 | 86 | 120 | 1.0 | 2.0 | 0.00 | 0.00 | 0.00 | 57 | 1010.4 |
| 20260904084037 | 86 | 107 | 0.0 | 1.0 | 0.00 | 0.00 | 0.00 | 57 | 1010.6 |
| 20260904083533 | 86 | 87 | 0.0 | 0.0 | 0.00 | 0.00 | 0.00 | 57 | 1010.4 |
| 20260904083028 | 86 | 106 | 0.0 | 3.0 | 0.00 | 0.00 | 0.00 | 56 | 1010.4 |
| 20260904082524 | 86 | 106 | 0.0 | 0.0 | 0.00 | 0.00 | 0.00 | 56 | 1010.7 |
| 20260904082019 | 86 | 121 | 2.0 | 5.0 | 0.00 | 0.00 | 0.00 | 55 | 1010.6 |
| 20260904081514 | 86 | 114 | 2.0 | 5.0 | 0.00 | 0.00 | 0.00 | 55 | 1010.5 |
| 20260904081009 | 87 | 118 | 3.0 | 5.0 | 0.00 | 0.00 | 0.00 | 55 | 1010.6 |
| 20260904080505 | 87 | 120 | 2.0 | 6.0 | 0.00 | 0.00 | 0.00 | 55 | 1010.4 |
| 20260904080000 | 87 | 143 | 7.0 | 8.0 | 0.00 | 0.00 | 0.00 | 54 | 1010.5 |
| 20260904075457 | 87 | 125 | 3.0 | 5.0 | 0.00 | 0.00 | 0.00 | 54 | 1010.6 |
| 20260904074955 | 87 | 106 | 1.0 | 5.0 | 0.00 | 0.00 | 0.00 | 54 | 1010.4 |
| 20260904074451 | 87 | 87 | 3.0 | 3.0 | 0.00 | 0.00 | 0.00 | 54 | 1010.7 |
| 20260904073945 | 87 | 116 | 2.0 | 6.0 | 0.00 | 0.00 | 0.00 | 54 | 1010.4 |
| 20260904073441 | 87 | 120 | 2.0 | 2.0 | 0.00 | 0.00 | 0.00 | 55 | 1010.1 |
| 20260904072936 | 88 | 94 | 2.0 | 3.0 | 0.00 | 0.00 | 0.00 | 55 | 1010.4 |
| 20260904072432 | 88 | 113 | 0.0 | 0.0 | 0.00 | 0.00 | 0.00 | 54 | 1010.4 |
| 20260904071927 | 88 | 109 | 0.0 | 0.0 | 0.00 | 0.00 | 0.00 | 54 | 1010.4 |
| 20260904071423 | 88 | 102 | 0.0 | 1.0 | 0.00 | 0.00 | 0.00 | 54 | 1010.6 |
| 20260904070917 | 88 | 93 | 0.0 | 2.0 | 0.00 | 0.00 | 0.00 | 54 | 1010.6 |
| 20260904070416 | 88 | 101 | 0.0 | 2.0 | 0.00 | 0.00 | 0.00 | 53 | 1010.4 |
| 20260904065916 | 88 | 123 | 0.0 | 2.0 | 0.00 | 0.00 | 0.00 | 53 | 1010.2 |
| 20260904065412 | 88 | 101 | 2.0 | 2.0 | 0.00 | 0.00 | 0.00 | 53 | 1010.3 |
| 20260904064912 | 89 | 127 | 1.0 | 2.0 | 0.00 | 0.00 | 0.00 | 53 | 1010.1 |
| 20260904064408 | 89 | 117 | 1.0 | 3.0 | 0.00 | 0.00 | 0.00 | 52 | 1010.1 |
| 20260904063904 | 89 | 90 | 2.0 | 6.0 | 0.00 | 0.00 | 0.00 | 52 | 1010.2 |
| 20260904063400 | 89 | 120 | 2.0 | 6.0 | 0.00 | 0.00 | 0.00 | 52 | 1010.1 |
| 20260904062855 | 89 | 122 | 5.0 | 7.0 | 0.00 | 0.00 | 0.00 | 51 | 1010.0 |
| 20260904062351 | 89 | 121 | 4.0 | 6.0 | 0.00 | 0.00 | 0.00 | 51 | 1009.9 |
| 20260904061847 | 89 | 138 | 1.0 | 7.0 | 0.00 | 0.00 | 0.00 | 50 | 1010.0 |
| 20260904061343 | 89 | 122 | 4.0 | 7.0 | 0.00 | 0.00 | 0.00 | 50 | 1010.0 |
| 20260904060838 | 89 | 99 | 2.0 | 8.0 | 0.00 | 0.00 | 0.00 | 50 | 1010.0 |
| 20260904060335 | 89 | 102 | 3.0 | 5.0 | 0.00 | 0.00 | 0.00 | 49 | 1009.9 |
| 20260904055830 | 89 | 166 | 3.0 | 7.0 | 0.00 | 0.00 | 0.00 | 49 | 1009.9 |
| 20260904055325 | 89 | 130 | 4.0 | 11.0 | 0.00 | 0.00 | 0.00 | 49 | 1009.8 |
| 20260904054821 | 89 | 129 | 2.0 | 7.0 | 0.00 | 0.00 | 0.00 | 49 | 1009.9 |
| 20260904054316 | 90 | 150 | 3.0 | 7.0 | 0.00 | 0.00 | 0.00 | 48 | 1009.9 |
| 20260904053811 | 90 | 159 | 3.0 | 6.0 | 0.00 | 0.00 | 0.00 | 48 | 1009.9 |
| 20260904053311 | 90 | 112 | 1.0 | 5.0 | 0.00 | 0.00 | 0.00 | 47 | 1009.8 |
| 20260904052807 | 90 | 168 | 1.0 | 5.0 | 0.00 | 0.00 | 0.00 | 47 | 1009.6 |
| 20260904052306 | 90 | 174 | 2.0 | 6.0 | 0.00 | 0.00 | 0.00 | 46 | 1009.7 |
| 20260904051759 | 90 | 139 | 1.0 | 3.0 | 0.00 | 0.00 | 0.00 | 46 | 1009.6 |
| 20260904051255 | 90 | 99 | 1.0 | 3.0 | 0.00 | 0.00 | 0.00 | 46 | 1009.8 |
| 20260904050749 | 90 | 176 | 5.0 | 7.0 | 0.00 | 0.00 | 0.00 | 45 | 1009.6 |
| 20260904050247 | 90 | 156 | 2.0 | 5.0 | 0.00 | 0.00 | 0.00 | 45 | 1009.8 |
| 20260904045746 | 91 | 172 | 3.0 | 6.0 | 0.00 | 0.00 | 0.00 | 44 | 1009.6 |
| 20260904045241 | 91 | 141 | 1.0 | 2.0 | 0.00 | 0.00 | 0.00 | 44 | 1009.8 |
| 20260904044736 | 91 | 126 | 5.0 | 8.0 | 0.00 | 0.00 | 0.00 | 43 | 1009.8 |
| 20260904044233 | 91 | 97 | 0.0 | 3.0 | 0.00 | 0.00 | 0.00 | 43 | 1009.5 |
| 20260904043728 | 91 | 78 | 2.0 | 5.0 | 0.00 | 0.00 | 0.00 | 42 | 1009.6 |
| 20260904043225 | 91 | 137 | 1.0 | 5.0 | 0.00 | 0.00 | 0.00 | 42 | 1009.6 |
| 20260904042720 | 92 | 119 | 1.0 | 3.0 | 0.00 | 0.00 | 0.00 | 42 | 1009.6 |
| 20260904042216 | 92 | 101 | 2.0 | 6.0 | 0.00 | 0.00 | 0.00 | 42 | 1009.7 |
| 20260904041715 | 92 | 107 | 0.0 | 2.0 | 0.00 | 0.00 | 0.00 | 42 | 1009.5 |
| 20260904041212 | 92 | 183 | 1.0 | 2.0 | 0.00 | 0.00 | 0.00 | 42 | 1009.5 |
| 20260904040708 | 92 | 154 | 1.0 | 2.0 | 0.00 | 0.00 | 0.00 | 42 | 1009.5 |
| 20260904040203 | 92 | 115 | 0.0 | 2.0 | 0.00 | 0.00 | 0.00 | 42 | 1009.2 |
| 20260904035659 | 93 | 111 | 1.0 | 3.0 | 0.00 | 0.00 | 0.00 | 42 | 1009.3 |
| 20260904035154 | 93 | 238 | 1.0 | 2.0 | 0.00 | 0.00 | 0.00 | 42 | 1009.2 |
| 20260904034653 | 93 | 137 | 0.0 | 0.0 | 0.00 | 0.00 | 0.00 | 42 | 1009.3 |
| 20260904034149 | 93 | 132 | 2.0 | 3.0 | 0.00 | 0.00 | 0.00 | 41 | 1009.3 |
| 20260904033645 | 93 | 151 | 0.0 | 2.0 | 0.00 | 0.00 | 0.00 | 41 | 1009.0 |
| 20260904033142 | 93 | 120 | 2.0 | 6.0 | 0.00 | 0.00 | 0.00 | 41 | 1008.9 |
| 20260904032637 | 93 | 103 | 1.0 | 6.0 | 0.00 | 0.00 | 0.00 | 41 | 1008.8 |
| 20260904032136 | 93 | 144 | 1.0 | 5.0 | 0.00 | 0.00 | 0.00 | 41 | 1008.8 |
| 20260904031635 | 93 | 122 | 1.0 | 3.0 | 0.00 | 0.00 | 0.00 | 41 | 1008.9 |
| 20260904031131 | 93 | 162 | 2.0 | 3.0 | 0.00 | 0.00 | 0.00 | 41 | 1008.8 |
| 20260904030627 | 93 | 121 | 1.0 | 5.0 | 0.00 | 0.00 | 0.00 | 41 | 1008.6 |
| 20260904030122 | 93 | 109 | 1.0 | 3.0 | 0.00 | 0.00 | 0.00 | 41 | 1008.8 |
| 20260904025619 | 93 | 129 | 3.0 | 5.0 | 0.00 | 0.00 | 0.00 | 41 | 1008.6 |
| 20260904025119 | 93 | 97 | 0.0 | 6.0 | 0.00 | 0.00 | 0.00 | 41 | 1008.6 |
| 20260904024614 | 93 | 106 | 1.0 | 7.0 | 0.00 | 0.00 | 0.00 | 41 | 1008.7 |
| 20260904024110 | 93 | 103 | 1.0 | 8.0 | 0.00 | 0.00 | 0.00 | 41 | 1008.5 |
| 20260904023606 | 93 | 128 | 3.0 | 6.0 | 0.00 | 0.00 | 0.00 | 41 | 1008.6 |
| 20260904023102 | 93 | 152 | 4.0 | 8.0 | 0.00 | 0.00 | 0.00 | 41 | 1008.5 |
| 20260904022601 | 93 | 103 | 6.0 | 10.0 | 0.00 | 0.00 | 0.00 | 41 | 1008.4 |
| 20260904022058 | 93 | 159 | 6.0 | 9.0 | 0.00 | 0.00 | 0.00 | 40 | 1008.4 |
| 20260904021553 | 93 | 145 | 5.0 | 11.0 | 0.00 | 0.00 | 0.00 | 40 | 1008.5 |
| 20260904021049 | 94 | 142 | 5.0 | 8.0 | 0.00 | 0.00 | 0.00 | 40 | 1008.5 |
| 20260904020544 | 93 | 161 | 3.0 | 8.0 | 0.00 | 0.00 | 0.00 | 40 | 1008.4 |